createdAt,value
2019-02-09T05:31:23.108Z,2.50
2019-02-09T05:33:51.619Z,2.30
2019-02-09T05:36:20.683Z,2.30
2019-02-09T05:38:49.712Z,2.40
2019-02-09T05:41:18.772Z,2.30
2019-02-09T05:43:47.819Z,2.30
2019-02-09T05:46:16.871Z,2.20
2019-02-09T05:48:46.003Z,2.20
2019-02-09T05:51:15.002Z,2.30
2019-02-09T05:53:43.944Z,2.60
2019-02-09T05:56:13.065Z,2.60
2019-02-09T05:58:42.012Z,2.80
2019-02-09T06:01:10.960Z,2.80
2019-02-09T06:03:39.951Z,2.80
2019-02-09T06:06:08.998Z,2.80
2019-02-09T06:08:37.995Z,3.10
2019-02-09T06:11:07.027Z,3.30
2019-02-09T06:13:36.182Z,3.40
2019-02-09T06:16:05.566Z,3.40
2019-02-09T06:18:34.763Z,3.60
2019-02-09T06:21:03.743Z,3.70
2019-02-09T06:23:32.813Z,4.10
2019-02-09T06:26:03.653Z,4.20
2019-02-09T06:28:32.882Z,4.20
2019-02-09T06:31:02.086Z,4.20
2019-02-09T06:33:31.495Z,4.40
2019-02-09T06:36:00.554Z,4.60
2019-02-09T06:38:29.661Z,4.60
2019-02-09T06:40:58.753Z,4.60
2019-02-09T06:43:27.917Z,4.60
2019-02-09T06:45:56.883Z,4.40
2019-02-09T06:48:30.227Z,4.30
2019-02-09T06:51:02.034Z,4.20
2019-02-09T06:53:31.241Z,4.10
2019-02-09T06:56:00.465Z,4.30
2019-02-09T06:58:29.469Z,4.30
2019-02-09T07:00:58.526Z,4.30
2019-02-09T07:03:27.515Z,4.40
2019-02-09T07:05:56.426Z,4.50
2019-02-09T07:08:25.483Z,4.60
2019-02-09T07:10:54.533Z,4.80
2019-02-09T07:13:23.583Z,5.00
2019-02-09T07:15:52.659Z,5.10
2019-02-09T07:18:21.556Z,5.10
2019-02-09T07:20:50.633Z,5.20
2019-02-09T07:23:19.717Z,5.30
2019-02-09T07:25:48.699Z,5.50
2019-02-09T07:28:17.758Z,5.60
2019-02-09T07:30:46.950Z,5.50
2019-02-09T07:33:15.999Z,5.50
2019-02-09T07:35:45.065Z,5.60
2019-02-09T07:38:14.151Z,5.60
2019-02-09T07:40:43.222Z,5.60
2019-02-09T07:43:12.271Z,5.70
2019-02-09T07:45:41.631Z,5.80
2019-02-09T07:48:10.711Z,5.70
2019-02-09T07:50:39.769Z,5.80
2019-02-09T07:53:08.710Z,5.80
2019-02-09T07:55:37.960Z,5.90
2019-02-09T07:58:07.010Z,5.90
2019-02-09T08:00:36.215Z,6.00
2019-02-09T08:03:06.094Z,6.10
2019-02-09T08:05:35.157Z,6.10
2019-02-09T08:08:04.590Z,6.10
2019-02-09T08:10:33.871Z,6.10
2019-02-09T08:13:03.232Z,6.20
2019-02-09T08:15:33.228Z,6.20
2019-02-09T08:18:11.533Z,6.10
2019-02-09T08:20:41.309Z,6.20
2019-02-09T08:23:10.464Z,6.60
2019-02-09T08:25:40.112Z,8.00
2019-02-09T08:28:09.846Z,9.20
2019-02-09T08:30:41.105Z,10.00
2019-02-09T08:33:10.273Z,10.20
2019-02-09T08:35:40.437Z,10.30
2019-02-09T08:38:11.147Z,10.30
2019-02-09T08:40:40.235Z,9.40
2019-02-09T08:43:09.539Z,8.50
2019-02-09T08:45:38.802Z,8.00
2019-02-09T08:48:08.012Z,7.80
2019-02-09T08:50:49.286Z,8.00
2019-02-09T08:53:18.386Z,8.40
2019-02-09T08:55:47.617Z,8.60
2019-02-09T08:58:16.749Z,8.90
2019-02-09T09:00:45.911Z,9.30
2019-02-09T09:03:14.970Z,9.40
2019-02-09T09:05:46.166Z,9.60
2019-02-09T09:08:15.534Z,9.30
2019-02-09T09:10:44.725Z,9.60
2019-02-09T09:13:14.026Z,9.70
2019-02-09T09:15:45.780Z,10.00
2019-02-09T09:18:15.689Z,10.60
2019-02-09T09:20:47.775Z,11.30
2019-02-09T09:23:16.766Z,11.60
2019-02-09T09:25:45.961Z,12.40
2019-02-09T09:28:15.176Z,13.10
2019-02-09T09:30:44.322Z,13.30
2019-02-09T09:33:13.326Z,13.20
2019-02-09T09:35:42.503Z,13.10
2019-02-09T09:38:11.743Z,13.10
2019-02-09T09:40:41.660Z,13.40
2019-02-09T09:43:10.837Z,13.40
2019-02-09T09:45:40.659Z,13.60
2019-02-09T09:48:11.878Z,13.50
2019-02-09T09:50:40.994Z,12.20
2019-02-09T09:53:10.130Z,11.00
2019-02-09T09:55:39.185Z,11.00
2019-02-09T09:58:08.514Z,12.20
2019-02-09T10:00:37.842Z,12.70
2019-02-09T10:03:06.929Z,13.00
2019-02-09T10:05:36.043Z,12.80
2019-02-09T10:08:06.302Z,13.40
2019-02-09T10:10:35.470Z,14.30
2019-02-09T10:13:05.340Z,15.10
2019-02-09T10:15:34.565Z,16.00
2019-02-09T10:18:03.914Z,15.90
2019-02-09T10:20:33.058Z,16.30
2019-02-09T10:23:02.087Z,16.10
2019-02-09T10:25:31.126Z,15.80
2019-02-09T10:28:00.211Z,15.90
2019-02-09T10:30:29.709Z,15.60
2019-02-09T10:32:58.858Z,15.00
2019-02-09T10:35:28.370Z,14.70
2019-02-09T10:37:57.362Z,14.80
2019-02-09T10:40:28.551Z,15.30
2019-02-09T10:42:57.963Z,15.10
2019-02-09T10:45:28.156Z,14.80
2019-02-09T10:47:57.434Z,14.70
2019-02-09T10:50:28.767Z,15.20
2019-02-09T10:52:59.623Z,15.50
2019-02-09T10:55:29.326Z,15.00
2019-02-09T10:58:00.265Z,14.30
2019-02-09T11:00:36.385Z,14.40
2019-02-09T11:03:06.883Z,14.20
2019-02-09T11:05:36.820Z,13.00
2019-02-09T11:08:08.481Z,11.90
2019-02-09T11:10:38.241Z,11.60
2019-02-09T11:13:07.494Z,11.30
2019-02-09T11:15:36.583Z,11.10
2019-02-09T11:18:06.574Z,11.30
2019-02-09T11:20:35.744Z,11.20
2019-02-09T11:23:05.142Z,11.30
2019-02-09T11:25:34.273Z,11.40
2019-02-09T11:28:03.606Z,11.30
2019-02-09T11:30:32.891Z,11.40
2019-02-09T11:33:02.674Z,11.70
2019-02-09T11:35:32.368Z,11.70
2019-02-09T11:38:01.298Z,11.80
2019-02-09T11:40:30.535Z,11.60
2019-02-09T11:42:59.791Z,11.20
2019-02-09T11:45:29.121Z,11.30
2019-02-09T11:47:58.210Z,11.30
2019-02-09T11:50:27.299Z,11.00
2019-02-09T11:52:56.607Z,10.90
2019-02-09T11:55:25.683Z,10.60
2019-02-09T11:57:54.807Z,10.50
2019-02-09T12:00:29.245Z,10.50
2019-02-09T12:03:05.416Z,10.60
2019-02-09T12:05:29.249Z,10.70
2019-02-09T12:07:58.378Z,10.80
2019-02-09T12:10:27.686Z,10.90
2019-02-09T12:12:56.812Z,10.60
2019-02-09T12:15:28.162Z,9.90
2019-02-09T12:17:57.267Z,10.60
2019-02-09T12:20:26.321Z,10.50
2019-02-09T12:22:55.498Z,10.50
2019-02-09T12:25:27.987Z,10.30
2019-02-09T12:27:57.065Z,10.30
2019-02-09T12:30:27.733Z,10.30
2019-02-09T12:32:56.911Z,10.40
2019-02-09T12:35:26.026Z,10.30
2019-02-09T12:37:55.211Z,10.30
2019-02-09T12:40:26.665Z,10.10
2019-02-09T12:42:55.806Z,10.20
2019-02-09T12:45:25.086Z,10.30
2019-02-09T12:47:54.528Z,10.30
2019-02-09T12:50:24.085Z,10.60
2019-02-09T12:52:53.311Z,10.40
2019-02-09T12:55:23.068Z,10.10
2019-02-09T12:57:52.129Z,10.00
2019-02-09T13:00:32.383Z,10.00
2019-02-09T13:03:11.325Z,10.00
2019-02-09T13:05:40.398Z,10.00
2019-02-09T13:08:09.662Z,10.20
2019-02-09T13:10:38.790Z,10.10
2019-02-09T13:13:07.945Z,10.00
2019-02-09T13:15:37.006Z,10.00
2019-02-09T13:18:06.545Z,10.00
2019-02-09T13:20:35.786Z,9.90
2019-02-09T13:23:06.261Z,9.90
2019-02-09T13:25:35.271Z,9.80
2019-02-09T13:28:04.856Z,9.90
2019-02-09T13:30:34.706Z,9.80
2019-02-09T13:33:04.141Z,9.90
2019-02-09T13:35:33.811Z,9.80
2019-02-09T13:38:02.996Z,9.80
2019-02-09T13:40:32.280Z,9.80
2019-02-09T13:43:01.573Z,9.70
2019-02-09T13:45:33.159Z,9.60
2019-02-09T13:48:02.688Z,9.60
2019-02-09T13:50:33.041Z,9.60
2019-02-09T13:53:02.239Z,9.60
2019-02-09T13:55:31.396Z,9.50
2019-02-09T13:58:00.687Z,9.40
2019-02-09T14:00:29.819Z,9.50
2019-02-09T14:02:59.354Z,9.30
2019-02-09T14:06:08.347Z,9.40
2019-02-09T14:08:34.803Z,9.30
2019-02-09T14:11:03.920Z,9.20
2019-02-09T14:13:33.435Z,9.20
2019-02-09T14:16:08.282Z,8.00
2019-02-09T14:18:33.428Z,9.20
2019-02-09T14:21:02.571Z,9.20
2019-02-09T14:23:31.718Z,9.20
2019-02-09T14:26:00.837Z,9.20
2019-02-09T14:28:30.576Z,9.20
2019-02-09T14:31:35.826Z,9.20
2019-02-09T14:34:05.721Z,9.10
2019-02-09T14:36:34.922Z,9.10
2019-02-09T14:39:07.216Z,9.10
2019-02-09T14:41:36.327Z,9.10
2019-02-09T14:44:06.047Z,9.10
2019-02-09T14:46:35.168Z,9.00
2019-02-09T14:49:06.245Z,9.00
2019-02-09T14:51:35.369Z,8.90
2019-02-09T14:54:04.583Z,8.90
2019-02-09T14:56:33.776Z,8.90
2019-02-09T14:59:03.091Z,8.80
2019-02-09T15:01:32.566Z,8.80
2019-02-09T15:04:03.044Z,8.80
2019-02-09T15:06:32.236Z,8.80
2019-02-09T15:09:01.344Z,8.70
2019-02-09T15:11:30.534Z,8.80
2019-02-09T15:13:59.492Z,8.80
2019-02-09T15:16:40.181Z,8.60
2019-02-09T15:19:09.496Z,8.60
2019-02-09T15:21:38.577Z,8.60
2019-02-09T15:24:07.807Z,8.70
2019-02-09T15:26:37.088Z,8.60
2019-02-09T15:29:06.199Z,8.70
2019-02-09T15:31:35.325Z,8.60
2019-02-09T15:34:10.093Z,8.60
2019-02-09T15:36:35.382Z,8.50
2019-02-09T15:39:07.886Z,8.40
2019-02-09T15:41:37.109Z,8.40
2019-02-09T15:44:06.778Z,8.30
2019-02-09T15:46:35.939Z,8.30
2019-02-09T15:49:05.467Z,8.20
2019-02-09T15:51:34.561Z,8.20
2019-02-09T15:54:04.084Z,8.20
2019-02-09T15:56:33.203Z,8.20
2019-02-09T15:59:02.341Z,8.10
2019-02-09T16:01:31.467Z,8.10
2019-02-09T16:04:00.582Z,8.10
2019-02-09T16:06:29.704Z,8.00
2019-02-09T16:08:59.228Z,8.00
2019-02-09T16:11:28.330Z,8.00
2019-02-09T16:13:57.649Z,8.00
2019-02-09T16:16:26.803Z,8.00
2019-02-09T16:19:49.622Z,7.90
2019-02-09T16:22:18.764Z,7.90
2019-02-09T16:24:47.861Z,7.90
2019-02-09T16:27:18.101Z,7.90
2019-02-09T16:29:47.418Z,7.90
2019-02-09T16:32:16.545Z,8.00
2019-02-09T16:34:45.648Z,8.00
2019-02-09T16:37:20.743Z,8.00
2019-02-09T16:39:49.820Z,7.90
2019-02-09T16:42:18.922Z,7.80
2019-02-09T16:44:48.084Z,7.80
2019-02-09T16:47:17.426Z,7.90
2019-02-09T16:49:46.532Z,7.80
2019-02-09T16:52:15.775Z,7.80
2019-02-09T16:54:44.892Z,7.80
2019-02-09T16:57:51.040Z,7.70
2019-02-09T17:00:28.685Z,7.60
2019-02-09T17:02:58.020Z,7.60
2019-02-09T17:05:27.310Z,7.60
2019-02-09T17:07:56.603Z,7.50
2019-02-09T17:10:25.917Z,7.50
2019-02-09T17:12:55.209Z,7.50
2019-02-09T17:15:25.196Z,7.40
2019-02-09T17:17:55.138Z,7.40
2019-02-09T17:20:24.358Z,7.50
2019-02-09T17:22:53.501Z,7.40
2019-02-09T17:25:23.313Z,7.30
2019-02-09T17:27:52.422Z,7.30
2019-02-09T17:30:26.568Z,7.30
2019-02-09T17:32:55.828Z,7.20
2019-02-09T17:35:26.866Z,7.20
2019-02-09T17:37:56.120Z,7.30
2019-02-09T17:40:30.715Z,7.30
2019-02-09T17:43:00.175Z,7.30
2019-02-09T17:45:32.303Z,7.30
2019-02-09T17:48:01.572Z,7.20
2019-02-09T17:50:36.512Z,7.30
2019-02-09T17:53:06.263Z,7.30
2019-02-09T17:55:35.430Z,7.20
2019-02-09T17:58:04.947Z,7.20
2019-02-09T18:00:40.707Z,7.10
2019-02-09T18:03:09.871Z,7.10
2019-02-09T18:05:38.988Z,7.10
2019-02-09T18:08:08.228Z,7.20
2019-02-09T18:10:37.498Z,7.20
2019-02-09T18:13:07.128Z,7.20
2019-02-09T18:15:36.381Z,7.20
2019-02-09T18:18:06.787Z,7.10
2019-02-09T18:20:35.888Z,7.10
2019-02-09T18:23:05.246Z,7.20
2019-02-09T18:25:34.356Z,7.20
2019-02-09T18:28:03.665Z,7.10
2019-02-09T18:30:32.874Z,7.10
2019-02-09T18:33:02.275Z,7.20
2019-02-09T18:35:31.404Z,7.20
2019-02-09T18:38:00.700Z,7.20
2019-02-09T18:40:30.476Z,7.20
2019-02-09T18:42:59.593Z,7.10
2019-02-09T18:45:29.149Z,7.10
2019-02-09T18:47:58.472Z,7.20
2019-02-09T18:50:28.192Z,7.20
2019-02-09T18:52:57.856Z,7.30
2019-02-09T18:55:27.490Z,7.30
2019-02-09T18:57:56.605Z,7.20
2019-02-09T19:00:27.830Z,7.20
2019-02-09T19:02:57.354Z,7.20
2019-02-09T19:05:26.479Z,7.20
2019-02-09T19:07:55.642Z,7.30
2019-02-09T19:10:26.031Z,7.30
2019-02-09T19:12:55.214Z,7.20
2019-02-09T19:15:25.512Z,7.30
2019-02-09T19:18:47.959Z,7.20
2019-02-09T19:22:10.203Z,7.20
2019-02-09T19:24:39.503Z,7.00
2019-02-09T19:27:08.771Z,6.90
2019-02-09T19:29:37.940Z,7.00
2019-02-09T19:32:08.223Z,7.00
2019-02-09T19:34:37.477Z,7.00
2019-02-09T19:37:07.091Z,7.00
2019-02-09T19:39:55.356Z,7.00
2019-02-09T19:42:24.502Z,7.10
2019-02-09T19:44:53.640Z,7.00
2019-02-09T19:47:22.774Z,6.90
2019-02-09T19:49:52.132Z,6.90
2019-02-09T19:52:21.236Z,6.70
2019-02-09T19:54:50.344Z,6.70
2019-02-09T19:57:19.492Z,6.70
2019-02-09T19:59:48.804Z,6.70
2019-02-09T20:03:11.148Z,6.80
2019-02-09T20:05:40.269Z,6.80
2019-02-09T20:08:09.667Z,6.80
2019-02-09T20:10:39.434Z,6.80
2019-02-09T20:13:09.469Z,6.70
2019-02-09T20:16:29.588Z,6.70
2019-02-09T20:18:58.866Z,6.20
2019-02-09T20:21:28.045Z,6.70
2019-02-09T20:23:57.184Z,6.70
2019-02-09T20:26:26.314Z,6.60
2019-02-09T20:28:55.729Z,6.60
2019-02-09T20:31:24.880Z,6.50
2019-02-09T20:33:54.004Z,6.60
2019-02-09T20:36:23.201Z,6.60
2019-02-09T20:38:52.396Z,6.70
2019-02-09T20:41:21.532Z,6.70
2019-02-09T20:43:50.649Z,6.60
2019-02-09T20:46:19.816Z,6.60
2019-02-09T20:48:48.940Z,6.60
2019-02-09T20:51:18.055Z,6.70
2019-02-09T20:53:47.162Z,6.60
2019-02-09T20:56:16.252Z,6.50
2019-02-09T20:58:45.360Z,6.50
2019-02-09T21:01:14.497Z,6.40
2019-02-09T21:03:43.618Z,6.30
2019-02-09T21:07:05.941Z,6.50
2019-02-09T21:09:35.052Z,6.50
2019-02-09T21:12:57.670Z,6.50
2019-02-09T21:15:27.822Z,6.60
2019-02-09T21:17:57.007Z,6.70
2019-02-09T21:20:27.889Z,6.70
2019-02-09T21:22:57.002Z,6.60
2019-02-09T21:25:30.883Z,6.60
2019-02-09T21:28:00.230Z,6.70
2019-02-09T21:30:29.651Z,6.60
2019-02-09T21:32:58.952Z,6.60
2019-02-09T21:35:30.540Z,6.60
2019-02-09T21:37:59.775Z,6.60
2019-02-09T21:40:29.259Z,6.60
2019-02-09T21:42:58.955Z,6.60
2019-02-09T21:45:28.229Z,6.50
2019-02-09T21:48:42.309Z,6.60
2019-02-09T21:51:11.532Z,6.80
2019-02-09T21:53:40.728Z,6.80
2019-02-09T21:56:10.077Z,6.70
2019-02-09T21:58:39.300Z,6.70
2019-02-09T22:01:08.615Z,6.50
2019-02-09T22:03:37.768Z,6.60
2019-02-09T22:06:06.918Z,6.60
2019-02-09T22:08:36.507Z,6.60
2019-02-09T22:11:05.862Z,6.60
2019-02-09T22:13:35.142Z,6.60
2019-02-09T22:16:04.368Z,6.60
2019-02-09T22:18:33.568Z,6.70
2019-02-09T22:21:02.854Z,6.80
2019-02-09T22:23:33.547Z,6.70
2019-02-09T22:26:02.687Z,6.80
2019-02-09T22:28:32.020Z,6.80
2019-02-09T22:31:01.182Z,6.70
2019-02-09T22:33:30.371Z,6.70
2019-02-09T22:36:17.927Z,6.80
2019-02-09T22:38:47.238Z,6.80
2019-02-09T22:41:16.359Z,6.80
2019-02-09T22:43:45.524Z,6.90
2019-02-09T22:46:14.675Z,6.80
2019-02-09T22:48:43.834Z,6.80
2019-02-09T22:51:12.936Z,6.70
2019-02-09T22:53:42.135Z,6.70
2019-02-09T22:56:11.419Z,6.70
2019-02-09T22:58:40.520Z,6.60
2019-02-09T23:01:46.201Z,6.50
2019-02-09T23:04:55.319Z,6.40
2019-02-09T23:07:29.867Z,6.50
2019-02-09T23:10:52.283Z,6.40
2019-02-09T23:14:14.349Z,6.30
2019-02-09T23:16:43.607Z,6.20
2019-02-09T23:19:12.900Z,6.20
2019-02-09T23:21:42.187Z,6.40
2019-02-09T23:24:11.463Z,6.40
2019-02-09T23:26:40.587Z,6.40
2019-02-09T23:29:39.638Z,6.30
